Time;durP1;ratioP1;P1;durP2;ratioP2;P2;SDS_P1;SDS_P2;PMS_P1;PMS_P2;Temp;Humidity;BMP_temperature;BMP_pressure;BME280_temperature;BME280_humidity;BME280_pressure;Samples;Min_cycle;Max_cycle;Signal;HPM_P1;HPM_P2
2023/01/07 00:02:18;;;;;;;;;;;9.40;99.90;;;;;;5034426;28;19928;-75
2023/01/07 00:04:43;;;;;;;;;;;9.50;99.90;;;;;;5020884;28;19925;-75
2023/01/07 00:07:09;;;;;;;;;;;9.50;99.90;;;;;;5036125;28;19955;-75
2023/01/07 00:09:34;;;;;;;;;;;9.50;99.90;;;;;;5033203;28;19928;-75
2023/01/07 00:12:00;;;;;;;;;;;9.50;99.90;;;;;;5007236;28;20383;-74
2023/01/07 00:14:25;;;;;;;;;;;9.60;99.90;;;;;;5024256;28;19921;-75
2023/01/07 00:16:51;;;;;;;;;;;9.60;99.90;;;;;;5032696;28;20149;-75
2023/01/07 00:19:17;;;;;;;;;;;9.60;99.90;;;;;;5022902;28;19925;-75
2023/01/07 00:21:43;;;;;;;;;;;9.70;99.90;;;;;;5016697;28;20302;-75
2023/01/07 00:24:09;;;;;;;;;;;9.70;99.90;;;;;;4989477;28;19929;-75
2023/01/07 00:26:36;;;;;;;;;;;9.70;99.90;;;;;;5007218;28;20011;-75
2023/01/07 00:29:05;;;;;;;;;;;9.80;99.90;;;;;;5021488;28;21050;-75
2023/01/07 00:31:32;;;;;;;;;;;9.80;99.90;;;;;;5022762;28;19972;-74
2023/01/07 00:36:24;;;;;;;;;;;9.80;99.90;;;;;;5022856;28;20067;-75
2023/01/07 00:38:54;;;;;;;;;;;9.80;99.90;;;;;;5006148;28;19930;-75
2023/01/07 00:41:20;;;;;;;;;;;9.90;99.90;;;;;;5038318;28;19933;-74
2023/01/07 00:43:48;;;;;;;;;;;9.90;99.90;;;;;;5004233;28;20303;-74
2023/01/07 00:46:14;;;;;;;;;;;9.90;99.90;;;;;;5037293;28;19929;-75
2023/01/07 00:48:40;;;;;;;;;;;9.90;99.90;;;;;;5004777;28;19925;-74
2023/01/07 00:51:10;;;;;;;;;;;9.90;99.90;;;;;;5007634;28;20383;-75
2023/01/07 00:53:35;;;;;;;;;;;10.00;99.90;;;;;;5022363;28;19921;-75
2023/01/07 00:56:01;;;;;;;;;;;9.90;99.90;;;;;;5022766;28;19928;-75
2023/01/07 00:58:26;;;;;;;;;;;10.00;99.90;;;;;;5006744;28;20378;-75
2023/01/07 01:00:59;;;;;;;;;;;10.00;99.90;;;;;;5021786;28;19925;-75
2023/01/07 01:03:25;;;;;;;;;;;10.00;99.90;;;;;;5008777;28;19921;-75
2023/01/07 01:05:51;;;;;;;;;;;10.00;99.90;;;;;;5006148;28;20473;-75
2023/01/07 01:08:17;;;;;;;;;;;10.00;99.90;;;;;;5021079;28;19929;-75
2023/01/07 01:10:44;;;;;;;;;;;10.00;99.90;;;;;;5032240;28;19925;-76
2023/01/07 01:13:16;;;;;;;;;;;10.00;99.90;;;;;;5007897;28;19974;-76
2023/01/07 01:15:45;;;;;;;;;;;10.00;99.90;;;;;;5036874;28;20003;-76
2023/01/07 01:18:10;;;;;;;;;;;10.00;99.90;;;;;;5039217;28;19928;-76
2023/01/07 01:20:36;;;;;;;;;;;10.00;99.90;;;;;;5010116;28;20302;-76
2023/01/07 01:23:02;;;;;;;;;;;10.00;99.90;;;;;;5011871;28;19928;-76
2023/01/07 01:25:27;;;;;;;;;;;10.00;99.90;;;;;;5024843;28;20020;-76
2023/01/07 01:27:53;;;;;;;;;;;10.00;99.90;;;;;;5008882;28;20338;-76
2023/01/07 01:30:18;;;;;;;;;;;10.00;99.90;;;;;;5026445;28;19921;-76
2023/01/07 01:32:44;;;;;;;;;;;10.00;99.90;;;;;;5040538;28;19921;-75
2023/01/07 01:35:10;;;;;;;;;;;10.00;99.90;;;;;;5039926;28;20406;-75
2023/01/07 01:37:35;;;;;;;;;;;10.00;99.90;;;;;;5025559;28;20212;-76
2023/01/07 01:40:02;;;;;;;;;;;10.00;99.90;;;;;;5024221;28;19940;-74
2023/01/07 01:42:29;;;;;;;;;;;10.00;99.90;;;;;;5027565;28;19973;-75
2023/01/07 01:44:59;;;;;;;;;;;10.00;99.90;;;;;;5024442;28;20000;-76
2023/01/07 01:47:31;;;;;;;;;;;10.00;99.90;;;;;;5035343;28;20163;-75
2023/01/07 01:50:08;;;;;;;;;;;10.10;99.90;;;;;;5024371;28;19929;-75
2023/01/07 01:52:36;;;;;;;;;;;10.00;99.90;;;;;;5040305;28;19925;-75
2023/01/07 01:55:03;;;;;;;;;;;10.10;99.90;;;;;;5038009;28;20370;-76
2023/01/07 01:57:31;;;;;;;;;;;10.00;99.90;;;;;;5010984;28;20032;-76
2023/01/07 01:59:57;;;;;;;;;;;10.10;99.90;;;;;;5040383;28;20268;-76
2023/01/07 02:02:30;;;;;;;;;;;10.00;99.90;;;;;;5039406;28;19948;-75
2023/01/07 02:04:56;;;;;;;;;;;10.00;99.90;;;;;;5016822;28;19921;-75
2023/01/07 02:07:22;;;;;;;;;;;10.00;99.90;;;;;;5021133;28;19921;-75
2023/01/07 02:10:07;;;;;;;;;;;10.00;99.90;;;;;;5010582;28;19928;-76
2023/01/07 02:12:39;;;;;;;;;;;10.00;99.90;;;;;;5033305;28;19929;-75
2023/01/07 02:15:11;;;;;;;;;;;10.00;99.90;;;;;;5009057;28;19975;-76
2023/01/07 02:17:54;;;;;;;;;;;10.00;99.90;;;;;;5023685;28;20008;-75
2023/01/07 02:20:39;;;;;;;;;;;10.00;99.90;;;;;;5024669;28;19931;-76
2023/01/07 02:23:23;;;;;;;;;;;10.00;99.90;;;;;;5008898;28;19965;-75
2023/01/07 02:25:48;;;;;;;;;;;10.00;99.90;;;;;;5008780;28;21183;-75
2023/01/07 02:28:17;;;;;;;;;;;10.00;99.90;;;;;;5037068;28;20011;-75
2023/01/07 02:30:43;;;;;;;;;;;10.00;99.90;;;;;;5023111;28;19928;-75
2023/01/07 02:33:25;;;;;;;;;;;10.00;99.90;;;;;;5035911;28;20302;-75
2023/01/07 02:36:03;;;;;;;;;;;10.00;99.90;;;;;;5024389;28;20350;-75
2023/01/07 02:38:47;;;;;;;;;;;10.00;99.90;;;;;;5035181;28;20406;-75
2023/01/07 02:41:38;;;;;;;;;;;10.00;99.90;;;;;;5037300;28;19925;-76
2023/01/07 02:44:08;;;;;;;;;;;10.00;99.90;;;;;;5025236;28;19927;-76
2023/01/07 02:46:37;;;;;;;;;;;10.00;99.90;;;;;;5023943;28;19968;-76
2023/01/07 02:49:10;;;;;;;;;;;10.00;99.90;;;;;;5036946;28;20011;-76
2023/01/07 02:51:37;;;;;;;;;;;10.00;99.90;;;;;;5037479;28;19934;-75
2023/01/07 02:54:03;;;;;;;;;;;10.00;99.90;;;;;;5008808;28;19976;-76
2023/01/07 02:56:47;;;;;;;;;;;10.00;99.90;;;;;;5036585;28;19928;-75
2023/01/07 02:59:23;;;;;;;;;;;9.90;99.90;;;;;;5034048;28;20408;-75
2023/01/07 03:02:14;;;;;;;;;;;9.90;99.90;;;;;;5006207;28;20413;-75
2023/01/07 03:04:39;;;;;;;;;;;9.90;99.90;;;;;;5023670;28;20012;-75
2023/01/07 03:07:07;;;;;;;;;;;9.90;99.90;;;;;;5021798;28;20024;-75
2023/01/07 03:09:39;;;;;;;;;;;9.90;99.90;;;;;;5024889;28;19925;-75
2023/01/07 03:12:28;;;;;;;;;;;10.00;99.90;;;;;;5023929;28;20397;-75
2023/01/07 03:15:02;;;;;;;;;;;10.00;99.90;;;;;;5038263;28;19921;-75
2023/01/07 03:17:32;;;;;;;;;;;9.90;99.90;;;;;;5034161;28;19921;-75
2023/01/07 03:19:59;;;;;;;;;;;9.90;99.90;;;;;;5025588;28;19964;-75
2023/01/07 03:22:26;;;;;;;;;;;9.90;99.90;;;;;;5037248;28;19925;-75
2023/01/07 03:24:54;;;;;;;;;;;9.90;99.90;;;;;;5023949;28;19956;-75
2023/01/07 03:27:21;;;;;;;;;;;9.90;99.90;;;;;;5035864;28;19937;-75
2023/01/07 03:29:50;;;;;;;;;;;9.90;99.90;;;;;;5021710;28;19928;-75
2023/01/07 03:32:17;;;;;;;;;;;9.90;99.90;;;;;;5003336;28;19925;-75
2023/01/07 03:34:43;;;;;;;;;;;9.90;99.90;;;;;;5035466;28;19921;-75
2023/01/07 03:37:11;;;;;;;;;;;9.90;99.90;;;;;;5005337;28;19928;-75
2023/01/07 03:39:38;;;;;;;;;;;9.90;99.90;;;;;;5032947;28;19925;-75
2023/01/07 03:44:55;;;;;;;;;;;9.90;99.90;;;;;;5032009;28;20399;-75
2023/01/07 03:47:23;;;;;;;;;;;9.90;99.90;;;;;;5034581;28;19928;-75
2023/01/07 03:49:49;;;;;;;;;;;9.90;99.90;;;;;;5038437;28;19948;-75
2023/01/07 03:52:14;;;;;;;;;;;9.90;99.90;;;;;;5007065;28;19929;-75
2023/01/07 03:54:40;;;;;;;;;;;9.90;99.90;;;;;;5026521;28;19939;-74
2023/01/07 03:57:08;;;;;;;;;;;9.90;99.90;;;;;;5007816;28;20406;-75
2023/01/07 03:59:37;;;;;;;;;;;9.90;99.90;;;;;;5032066;28;19933;-75
2023/01/07 04:02:03;;;;;;;;;;;9.80;99.90;;;;;;5008134;28;19921;-75
2023/01/07 04:04:28;;;;;;;;;;;9.80;99.90;;;;;;5007300;28;20401;-74
2023/01/07 04:06:54;;;;;;;;;;;9.80;99.90;;;;;;5023068;28;19925;-75
2023/01/07 04:09:22;;;;;;;;;;;9.80;99.90;;;;;;5029010;28;20019;-75
2023/01/07 04:11:48;;;;;;;;;;;9.80;99.90;;;;;;5026607;28;19936;-75
2023/01/07 04:14:13;;;;;;;;;;;9.80;99.90;;;;;;4999571;28;20361;-75
2023/01/07 04:16:39;;;;;;;;;;;9.80;99.90;;;;;;5025768;28;20011;-75
2023/01/07 04:19:06;;;;;;;;;;;9.80;99.90;;;;;;5012064;28;20012;-74
2023/01/07 04:21:32;;;;;;;;;;;9.80;99.90;;;;;;5027667;28;19925;-75
2023/01/07 04:23:57;;;;;;;;;;;9.80;99.90;;;;;;5006656;28;19931;-75
2023/01/07 04:26:23;;;;;;;;;;;9.80;99.90;;;;;;5043393;28;19921;-75
2023/01/07 04:28:48;;;;;;;;;;;9.80;99.90;;;;;;5018840;28;20310;-75
2023/01/07 04:31:14;;;;;;;;;;;9.80;99.90;;;;;;5037311;28;19971;-75
2023/01/07 04:33:39;;;;;;;;;;;9.80;99.90;;;;;;4988921;28;19921;-75
2023/01/07 04:36:08;;;;;;;;;;;9.70;99.90;;;;;;5025376;28;19928;-75
2023/01/07 04:38:33;;;;;;;;;;;9.80;99.90;;;;;;5006862;28;20298;-74
2023/01/07 04:40:59;;;;;;;;;;;9.70;99.90;;;;;;5033179;28;20012;-74
2023/01/07 04:43:27;;;;;;;;;;;9.80;99.90;;;;;;5006111;28;19995;-74
2023/01/07 04:45:53;;;;;;;;;;;9.70;99.90;;;;;;5023781;28;19921;-75
2023/01/07 04:48:21;;;;;;;;;;;9.70;99.90;;;;;;5019273;28;21425;-74
2023/01/07 04:50:47;;;;;;;;;;;9.80;99.90;;;;;;5024007;28;20406;-75
2023/01/07 04:53:13;;;;;;;;;;;9.70;99.90;;;;;;5010431;28;19928;-75
2023/01/07 04:55:39;;;;;;;;;;;9.70;99.90;;;;;;5040469;28;19925;-74
2023/01/07 04:58:04;;;;;;;;;;;9.70;99.90;;;;;;5010848;28;19975;-75
2023/01/07 05:00:30;;;;;;;;;;;9.80;99.90;;;;;;5011323;28;20429;-75
2023/01/07 05:02:55;;;;;;;;;;;9.80;99.90;;;;;;5026319;28;19921;-75
2023/01/07 05:05:21;;;;;;;;;;;9.70;99.90;;;;;;5024138;28;20016;-75
2023/01/07 05:07:47;;;;;;;;;;;9.70;99.90;;;;;;5027399;28;19921;-75
2023/01/07 05:10:12;;;;;;;;;;;9.70;99.90;;;;;;5022983;28;19921;-74
2023/01/07 05:12:38;;;;;;;;;;;9.70;99.90;;;;;;5007694;28;19925;-74
2023/01/07 05:15:04;;;;;;;;;;;9.70;99.90;;;;;;5025873;28;19991;-74
2023/01/07 05:17:30;;;;;;;;;;;9.70;99.90;;;;;;5010417;28;19944;-74
2023/01/07 05:19:56;;;;;;;;;;;9.70;99.90;;;;;;5025961;28;19925;-74
2023/01/07 05:22:21;;;;;;;;;;;9.70;99.90;;;;;;5042285;28;20365;-75
2023/01/07 05:24:47;;;;;;;;;;;9.70;99.90;;;;;;5026356;28;19963;-74
2023/01/07 05:27:12;;;;;;;;;;;9.70;99.90;;;;;;5026414;28;20375;-75
2023/01/07 05:29:38;;;;;;;;;;;9.80;99.90;;;;;;5024449;28;19921;-74
2023/01/07 05:32:06;;;;;;;;;;;9.80;99.90;;;;;;5026148;28;20375;-75
2023/01/07 05:34:32;;;;;;;;;;;9.70;99.90;;;;;;5026096;28;19944;-74
2023/01/07 05:36:57;;;;;;;;;;;9.70;99.90;;;;;;5026595;28;20379;-75
2023/01/07 05:39:26;;;;;;;;;;;9.70;99.90;;;;;;5035450;28;20379;-74
2023/01/07 05:41:51;;;;;;;;;;;9.60;99.90;;;;;;5042434;28;19921;-74
2023/01/07 05:44:17;;;;;;;;;;;9.60;99.90;;;;;;5026155;28;20371;-75
2023/01/07 05:46:42;;;;;;;;;;;9.60;99.90;;;;;;5009747;28;19929;-75
2023/01/07 05:49:11;;;;;;;;;;;9.60;99.90;;;;;;5024839;28;19921;-74
2023/01/07 05:51:37;;;;;;;;;;;9.60;99.90;;;;;;5038056;28;19925;-75
2023/01/07 05:54:02;;;;;;;;;;;9.60;99.90;;;;;;5040992;28;19928;-75
2023/01/07 05:56:28;;;;;;;;;;;9.60;99.90;;;;;;5019741;28;19921;-74
2023/01/07 05:58:53;;;;;;;;;;;9.60;99.90;;;;;;5037078;28;20355;-75
2023/01/07 06:01:22;;;;;;;;;;;9.60;99.90;;;;;;5024546;28;19959;-75
2023/01/07 06:03:47;;;;;;;;;;;9.60;99.90;;;;;;4992983;28;19928;-74
2023/01/07 06:06:13;;;;;;;;;;;9.60;99.90;;;;;;5010523;28;19921;-75
2023/01/07 06:08:39;;;;;;;;;;;9.60;99.90;;;;;;4993834;28;20448;-75
2023/01/07 06:11:05;;;;;;;;;;;9.60;99.90;;;;;;5009074;28;19921;-75
2023/01/07 06:13:31;;;;;;;;;;;9.50;99.90;;;;;;5033860;28;20020;-75
2023/01/07 06:16:00;;;;;;;;;;;9.60;99.90;;;;;;4993827;28;19944;-75
2023/01/07 06:18:26;;;;;;;;;;;9.60;99.90;;;;;;5034881;28;20398;-75
2023/01/07 06:20:51;;;;;;;;;;;9.60;99.90;;;;;;5022060;28;19971;-75
2023/01/07 06:23:17;;;;;;;;;;;9.60;99.90;;;;;;5025861;28;19920;-75
2023/01/07 06:25:43;;;;;;;;;;;9.60;99.90;;;;;;5016178;28;20370;-75
2023/01/07 06:28:08;;;;;;;;;;;9.60;99.90;;;;;;5024272;28;19971;-75
2023/01/07 06:30:37;;;;;;;;;;;9.50;99.90;;;;;;5007121;28;19921;-75
2023/01/07 06:33:04;;;;;;;;;;;9.60;99.90;;;;;;5023890;28;19932;-75
2023/01/07 06:35:30;;;;;;;;;;;9.50;99.90;;;;;;5025084;28;19976;-75
2023/01/07 06:37:55;;;;;;;;;;;9.50;99.90;;;;;;5008428;28;19948;-75
2023/01/07 06:40:21;;;;;;;;;;;9.50;99.90;;;;;;5008576;28;19937;-75
2023/01/07 06:42:50;;;;;;;;;;;9.60;99.90;;;;;;5009076;28;19979;-75
2023/01/07 06:45:15;;;;;;;;;;;9.60;99.90;;;;;;5024159;28;19956;-75
2023/01/07 06:47:41;;;;;;;;;;;9.60;99.90;;;;;;5039259;28;19963;-74
2023/01/07 06:50:07;;;;;;;;;;;9.60;99.90;;;;;;5008118;28;19921;-75
2023/01/07 06:52:32;;;;;;;;;;;9.60;99.90;;;;;;5037370;28;20133;-75
2023/01/07 06:54:58;;;;;;;;;;;9.50;99.90;;;;;;5028488;28;19928;-75
2023/01/07 06:57:24;;;;;;;;;;;9.50;99.90;;;;;;5028783;28;19929;-74
2023/01/07 06:59:55;;;;;;;;;;;9.60;99.90;;;;;;5009707;28;19975;-74
2023/01/07 07:02:24;;;;;;;;;;;9.60;99.90;;;;;;5023775;28;19972;-75
2023/01/07 07:04:49;;;;;;;;;;;9.50;99.90;;;;;;5008555;28;19949;-74
2023/01/07 07:07:15;;;;;;;;;;;9.50;99.90;;;;;;5036131;28;20370;-74
2023/01/07 07:09:41;;;;;;;;;;;9.50;99.90;;;;;;5024117;28;19921;-75
2023/01/07 07:12:07;;;;;;;;;;;9.50;99.90;;;;;;5033490;28;19971;-75
2023/01/07 07:14:35;;;;;;;;;;;9.50;99.90;;;;;;5024426;28;19921;-75
2023/01/07 07:17:01;;;;;;;;;;;9.40;99.90;;;;;;5020680;28;20901;-75
2023/01/07 07:19:26;;;;;;;;;;;9.40;99.90;;;;;;5022298;28;20011;-74
2023/01/07 07:21:52;;;;;;;;;;;9.40;99.90;;;;;;5031890;28;19968;-75
2023/01/07 07:24:18;;;;;;;;;;;9.40;99.90;;;;;;5007786;28;19943;-74
2023/01/07 07:26:43;;;;;;;;;;;9.40;99.90;;;;;;4991810;28;19979;-75
2023/01/07 07:29:11;;;;;;;;;;;9.40;99.90;;;;;;5020051;28;19921;-74
2023/01/07 07:31:37;;;;;;;;;;;9.30;99.90;;;;;;5007898;28;19917;-75
2023/01/07 07:34:03;;;;;;;;;;;9.20;99.90;;;;;;5004805;28;19975;-74
2023/01/07 07:36:29;;;;;;;;;;;9.20;99.90;;;;;;5035205;28;20398;-74
2023/01/07 07:38:54;;;;;;;;;;;9.10;99.90;;;;;;5037738;28;19921;-75
2023/01/07 07:41:20;;;;;;;;;;;9.10;99.90;;;;;;5023623;28;20284;-75
2023/01/07 07:43:46;;;;;;;;;;;9.10;99.90;;;;;;4990951;28;20267;-75
2023/01/07 07:46:14;;;;;;;;;;;9.10;99.90;;;;;;5023168;28;19975;-75
2023/01/07 07:48:40;;;;;;;;;;;9.10;99.90;;;;;;5021476;28;20390;-73
2023/01/07 07:51:05;;;;;;;;;;;9.10;99.90;;;;;;4990164;28;19925;-73
2023/01/07 07:53:33;;;;;;;;;;;9.00;99.90;;;;;;5039574;28;19921;-73
2023/01/07 07:56:02;;;;;;;;;;;9.00;99.90;;;;;;5034314;28;19921;-73
2023/01/07 07:58:27;;;;;;;;;;;9.00;99.90;;;;;;5004114;28;20520;-72
2023/01/07 08:00:56;;;;;;;;;;;9.00;99.90;;;;;;5022460;28;19925;-72
2023/01/07 08:03:22;;;;;;;;;;;9.00;99.90;;;;;;5022256;28;19921;-73
2023/01/07 08:05:48;;;;;;;;;;;9.10;99.90;;;;;;5035381;28;20341;-73
2023/01/07 08:08:13;;;;;;;;;;;9.00;99.90;;;;;;5038144;28;19982;-72
2023/01/07 08:10:39;;;;;;;;;;;9.10;99.90;;;;;;5032168;28;19921;-73
2023/01/07 08:13:08;;;;;;;;;;;9.00;99.90;;;;;;5034011;28;20019;-72
2023/01/07 08:15:34;;;;;;;;;;;9.00;99.90;;;;;;5022692;28;19951;-73
2023/01/07 08:18:01;;;;;;;;;;;9.00;99.90;;;;;;5006873;28;19979;-73
2023/01/07 08:20:27;;;;;;;;;;;9.00;99.90;;;;;;5022660;28;19940;-73
2023/01/07 08:22:52;;;;;;;;;;;9.10;99.90;;;;;;5023712;28;20448;-73
2023/01/07 08:25:18;;;;;;;;;;;9.10;99.90;;;;;;5018725;28;19925;-73
2023/01/07 08:27:44;;;;;;;;;;;9.10;99.90;;;;;;5007549;28;19936;-73
2023/01/07 08:30:10;;;;;;;;;;;9.10;99.90;;;;;;5022165;28;20414;-73
2023/01/07 08:32:36;;;;;;;;;;;9.00;99.90;;;;;;5035618;28;19933;-73
2023/01/07 08:35:02;;;;;;;;;;;9.10;99.90;;;;;;5035633;28;19925;-73
2023/01/07 08:37:28;;;;;;;;;;;9.00;99.90;;;;;;5021971;28;20400;-73
2023/01/07 08:39:56;;;;;;;;;;;9.10;99.90;;;;;;5006039;28;19940;-74
2023/01/07 08:42:22;;;;;;;;;;;9.10;99.90;;;;;;5021704;28;20367;-74
2023/01/07 08:44:47;;;;;;;;;;;9.20;99.90;;;;;;5022958;28;20058;-74
2023/01/07 08:47:13;;;;;;;;;;;9.20;99.90;;;;;;5003705;28;20160;-75
2023/01/07 08:49:39;;;;;;;;;;;9.20;99.90;;;;;;5015060;28;20386;-75
2023/01/07 08:52:05;;;;;;;;;;;9.30;99.90;;;;;;5018662;28;21389;-74
2023/01/07 08:54:31;;;;;;;;;;;9.30;99.90;;;;;;5016795;28;19925;-75
2023/01/07 08:56:56;;;;;;;;;;;9.30;99.90;;;;;;5014000;28;19921;-74
2023/01/07 08:59:22;;;;;;;;;;;9.30;99.90;;;;;;5016387;28;19925;-74
2023/01/07 09:01:47;;;;;;;;;;;9.40;99.90;;;;;;5015840;28;19967;-75
2023/01/07 09:04:13;;;;;;;;;;;9.40;99.90;;;;;;5022886;28;19956;-75
2023/01/07 09:06:39;;;;;;;;;;;9.50;99.90;;;;;;4986860;28;19935;-75
2023/01/07 09:09:04;;;;;;;;;;;9.80;99.90;;;;;;5016891;28;19925;-75
2023/01/07 09:11:30;;;;;;;;;;;10.30;99.90;;;;;;5021649;28;20032;-75
2023/01/07 09:13:56;;;;;;;;;;;10.80;99.90;;;;;;4999603;28;20008;-75
2023/01/07 09:16:21;;;;;;;;;;;11.20;99.90;;;;;;5039614;28;19921;-75
2023/01/07 09:18:47;;;;;;;;;;;11.30;99.90;;;;;;5011731;28;20305;-74
2023/01/07 09:21:14;;;;;;;;;;;11.20;99.90;;;;;;4994357;28;19933;-75
2023/01/07 09:23:39;;;;;;;;;;;10.90;99.90;;;;;;5004755;28;19921;-75
2023/01/07 09:26:08;;;;;;;;;;;10.60;99.90;;;;;;5021972;28;19921;-74
2023/01/07 09:28:33;;;;;;;;;;;10.30;99.90;;;;;;5046682;28;19932;-74
2023/01/07 09:30:59;;;;;;;;;;;10.00;99.90;;;;;;5030074;28;19925;-75
2023/01/07 09:33:25;;;;;;;;;;;9.90;99.90;;;;;;5004801;28;19922;-75
2023/01/07 09:35:50;;;;;;;;;;;9.80;99.90;;;;;;5020868;28;19929;-75
2023/01/07 09:38:16;;;;;;;;;;;9.70;99.90;;;;;;5026318;28;20290;-75
2023/01/07 09:40:47;;;;;;;;;;;9.70;99.90;;;;;;5008605;28;19995;-74
2023/01/07 09:43:32;;;;;;;;;;;9.70;99.90;;;;;;5036652;28;20401;-74
2023/01/07 09:45:59;;;;;;;;;;;9.80;99.90;;;;;;5026640;28;19928;-75
2023/01/07 09:48:46;;;;;;;;;;;9.80;99.90;;;;;;5040817;28;20055;-75
2023/01/07 09:51:23;;;;;;;;;;;9.90;99.90;;;;;;5035445;28;19926;-75
2023/01/07 09:53:50;;;;;;;;;;;9.90;99.90;;;;;;5030372;28;19921;-75
2023/01/07 09:56:23;;;;;;;;;;;9.90;99.90;;;;;;5018778;28;20414;-75
2023/01/07 09:58:48;;;;;;;;;;;10.00;99.90;;;;;;5024211;28;19928;-74
2023/01/07 10:01:30;;;;;;;;;;;10.00;99.90;;;;;;5007102;28;19925;-74
2023/01/07 10:04:01;;;;;;;;;;;10.10;99.90;;;;;;5028172;28;19925;-74
2023/01/07 10:06:46;;;;;;;;;;;10.20;99.90;;;;;;5025277;28;19971;-74
2023/01/07 10:09:22;;;;;;;;;;;10.20;99.90;;;;;;5010715;28;19956;-74
2023/01/07 10:11:59;;;;;;;;;;;10.30;99.90;;;;;;5006777;28;19932;-74
2023/01/07 10:14:57;;;;;;;;;;;10.30;99.90;;;;;;5027980;28;19929;-74
2023/01/07 10:17:44;;;;;;;;;;;10.40;99.90;;;;;;5017541;28;19925;-74
2023/01/07 10:20:22;;;;;;;;;;;10.40;99.90;;;;;;5031008;28;19940;-74
2023/01/07 10:22:54;;;;;;;;;;;10.50;99.90;;;;;;5024667;28;19977;-74
2023/01/07 10:25:28;;;;;;;;;;;10.50;99.90;;;;;;5038741;28;19922;-74
2023/01/07 10:27:57;;;;;;;;;;;10.50;99.90;;;;;;5040902;28;19936;-74
2023/01/07 10:30:25;;;;;;;;;;;10.50;99.90;;;;;;5025981;28;19975;-74
2023/01/07 10:33:04;;;;;;;;;;;10.50;99.90;;;;;;5037539;28;19921;-74
2023/01/07 10:35:32;;;;;;;;;;;10.40;99.90;;;;;;5024276;28;19929;-75
2023/01/07 10:38:00;;;;;;;;;;;10.40;99.90;;;;;;5024066;28;19952;-75
2023/01/07 10:40:37;;;;;;;;;;;10.40;99.90;;;;;;5025674;28;19929;-74
2023/01/07 10:43:05;;;;;;;;;;;10.40;99.90;;;;;;5036370;28;19936;-75
2023/01/07 10:45:46;;;;;;;;;;;10.30;99.90;;;;;;5024274;28;20005;-74
2023/01/07 10:48:31;;;;;;;;;;;10.40;99.90;;;;;;5032291;28;19929;-74
2023/01/07 10:51:11;;;;;;;;;;;10.30;99.90;;;;;;5024766;28;19921;-74
2023/01/07 10:53:40;;;;;;;;;;;10.40;99.90;;;;;;5020748;28;19929;-75
2023/01/07 10:56:13;;;;;;;;;;;10.30;99.90;;;;;;5021493;28;20323;-74
2023/01/07 10:58:40;;;;;;;;;;;10.40;99.90;;;;;;5025727;28;19925;-75
2023/01/07 11:01:07;;;;;;;;;;;10.40;99.90;;;;;;5029929;28;20008;-74
2023/01/07 11:03:32;;;;;;;;;;;10.40;99.90;;;;;;5001730;28;20335;-75
2023/01/07 11:06:05;;;;;;;;;;;10.40;99.90;;;;;;4984311;28;19921;-74
2023/01/07 11:08:38;;;;;;;;;;;10.50;99.90;;;;;;5023633;28;20290;-75
2023/01/07 11:11:08;;;;;;;;;;;10.50;99.90;;;;;;5004501;28;19921;-75
2023/01/07 11:13:35;;;;;;;;;;;10.40;99.90;;;;;;5025597;28;20415;-75
2023/01/07 11:16:09;;;;;;;;;;;10.50;99.90;;;;;;5027948;28;20387;-75
2023/01/07 11:18:37;;;;;;;;;;;10.50;99.90;;;;;;5021457;28;20353;-75
2023/01/07 11:21:03;;;;;;;;;;;10.50;99.90;;;;;;5006633;28;19936;-74
2023/01/07 11:23:33;;;;;;;;;;;10.40;99.90;;;;;;5023663;28;19929;-74
2023/01/07 11:26:16;;;;;;;;;;;10.50;99.90;;;;;;5012394;28;20174;-74
2023/01/07 11:28:47;;;;;;;;;;;10.40;99.90;;;;;;5028045;28;19971;-75
2023/01/07 11:31:13;;;;;;;;;;;10.40;99.90;;;;;;5003675;28;20374;-75
2023/01/07 11:33:40;;;;;;;;;;;10.40;99.90;;;;;;5020532;28;19921;-75
2023/01/07 11:36:06;;;;;;;;;;;10.40;99.90;;;;;;5023755;28;19921;-75
2023/01/07 11:38:34;;;;;;;;;;;10.40;99.90;;;;;;5009443;28;19961;-75
2023/01/07 11:41:01;;;;;;;;;;;10.40;99.90;;;;;;5008008;28;20370;-75
2023/01/07 11:43:31;;;;;;;;;;;10.40;99.90;;;;;;5005976;28;20024;-75
2023/01/07 11:46:01;;;;;;;;;;;10.40;99.90;;;;;;5022237;28;20302;-75
2023/01/07 11:48:27;;;;;;;;;;;10.40;99.90;;;;;;5021123;28;20448;-75
2023/01/07 11:50:53;;;;;;;;;;;10.40;99.90;;;;;;5039514;28;19925;-75
2023/01/07 11:53:19;;;;;;;;;;;10.40;99.90;;;;;;5044305;28;19936;-75
2023/01/07 11:55:57;;;;;;;;;;;10.40;99.90;;;;;;5021472;28;19921;-75
2023/01/07 11:58:23;;;;;;;;;;;10.40;99.90;;;;;;5032896;28;19968;-75
2023/01/07 12:01:01;;;;;;;;;;;10.50;99.90;;;;;;5007354;28;20016;-76
2023/01/07 12:03:27;;;;;;;;;;;10.50;99.90;;;;;;5021537;28;20394;-75
2023/01/07 12:05:56;;;;;;;;;;;10.60;99.90;;;;;;5036587;28;19975;-74
2023/01/07 12:08:22;;;;;;;;;;;10.60;99.90;;;;;;5035537;28;20764;-75
2023/01/07 12:10:58;;;;;;;;;;;10.60;99.90;;;;;;5015349;28;19921;-74
2023/01/07 12:13:26;;;;;;;;;;;10.60;99.90;;;;;;5034471;28;19936;-74
2023/01/07 12:15:53;;;;;;;;;;;10.70;99.90;;;;;;5005167;28;20307;-75
2023/01/07 12:18:37;;;;;;;;;;;10.70;99.90;;;;;;5004038;28;19943;-74
2023/01/07 12:21:03;;;;;;;;;;;10.70;99.90;;;;;;5018250;28;19929;-74
2023/01/07 12:23:35;;;;;;;;;;;10.70;99.90;;;;;;5005817;28;19929;-74
2023/01/07 12:26:06;;;;;;;;;;;10.70;99.90;;;;;;5006609;28;19939;-74
2023/01/07 12:28:50;;;;;;;;;;;10.70;99.90;;;;;;5024507;28;20382;-74
2023/01/07 12:31:16;;;;;;;;;;;10.70;99.90;;;;;;5008468;28;19925;-74
2023/01/07 12:33:42;;;;;;;;;;;10.70;99.90;;;;;;5019186;28;19921;-74
2023/01/07 12:36:12;;;;;;;;;;;10.80;99.90;;;;;;5001216;28;19944;-74
2023/01/07 12:38:41;;;;;;;;;;;10.90;99.90;;;;;;5032708;28;19937;-74
2023/01/07 12:41:18;;;;;;;;;;;10.90;99.90;;;;;;5017946;28;20379;-73
2023/01/07 12:44:01;;;;;;;;;;;11.00;99.90;;;;;;5020564;28;20280;-74
2023/01/07 12:46:30;;;;;;;;;;;11.00;99.90;;;;;;5032478;28;19929;-73
2023/01/07 12:49:05;;;;;;;;;;;11.00;99.90;;;;;;5020270;28;19948;-75
2023/01/07 12:51:37;;;;;;;;;;;11.00;99.90;;;;;;5017924;28;19940;-74
2023/01/07 12:54:26;;;;;;;;;;;11.00;99.90;;;;;;5023902;28;19929;-74
2023/01/07 12:56:54;;;;;;;;;;;11.10;99.90;;;;;;4993994;28;19954;-75
2023/01/07 12:59:25;;;;;;;;;;;11.10;99.90;;;;;;5034789;28;20271;-74
2023/01/07 13:02:14;;;;;;;;;;;11.10;99.90;;;;;;5025843;28;19974;-75
2023/01/07 13:04:59;;;;;;;;;;;11.00;99.90;;;;;;4994912;28;19933;-75
2023/01/07 13:07:27;;;;;;;;;;;11.00;99.90;;;;;;5023685;28;19928;-74
2023/01/07 13:09:56;;;;;;;;;;;10.90;99.90;;;;;;5024917;28;20415;-74
2023/01/07 13:15:09;;;;;;;;;;;10.80;99.90;;;;;;5020764;28;20279;-75
2023/01/07 13:17:35;;;;;;;;;;;10.80;99.90;;;;;;5040668;28;19929;-75
2023/01/07 13:20:01;;;;;;;;;;;10.80;99.90;;;;;;5022857;28;20302;-75
2023/01/07 13:22:33;;;;;;;;;;;10.70;99.90;;;;;;5040573;28;20287;-75
2023/01/07 13:25:11;;;;;;;;;;;10.70;99.90;;;;;;5028633;28;19925;-75
2023/01/07 13:27:43;;;;;;;;;;;10.70;99.90;;;;;;5036916;28;19922;-75
2023/01/07 13:30:19;;;;;;;;;;;10.70;99.90;;;;;;5025772;28;20405;-75
2023/01/07 13:33:03;;;;;;;;;;;10.70;99.90;;;;;;5035355;28;20382;-75
2023/01/07 13:35:38;;;;;;;;;;;10.70;99.90;;;;;;5025438;28;19921;-75
2023/01/07 13:38:22;;;;;;;;;;;10.80;99.90;;;;;;5026627;28;19921;-74
2023/01/07 13:41:00;;;;;;;;;;;10.80;99.90;;;;;;5036336;28;19976;-74
2023/01/07 13:43:29;;;;;;;;;;;10.70;99.90;;;;;;5005208;28;20013;-74
2023/01/07 13:45:57;;;;;;;;;;;10.70;99.90;;;;;;5035992;28;19998;-74
2023/01/07 13:48:24;;;;;;;;;;;10.70;99.90;;;;;;5024476;28;19933;-75
2023/01/07 13:50:58;;;;;;;;;;;10.70;99.90;;;;;;5021159;28;19922;-75
2023/01/07 13:53:23;;;;;;;;;;;10.70;99.90;;;;;;5013999;28;20436;-75
2023/01/07 13:55:49;;;;;;;;;;;10.70;99.90;;;;;;5032617;28;19921;-75
2023/01/07 13:58:30;;;;;;;;;;;10.60;99.90;;;;;;5011846;28;19921;-75
2023/01/07 14:00:59;;;;;;;;;;;10.60;99.90;;;;;;5029259;28;20015;-75
2023/01/07 14:03:42;;;;;;;;;;;10.60;99.90;;;;;;5029018;28;19921;-75
2023/01/07 14:06:19;;;;;;;;;;;10.50;99.90;;;;;;5029561;28;19932;-75
2023/01/07 14:08:50;;;;;;;;;;;10.50;99.90;;;;;;5029303;28;20387;-75
2023/01/07 14:11:34;;;;;;;;;;;10.50;99.90;;;;;;5007830;28;19921;-75
2023/01/07 14:14:06;;;;;;;;;;;10.50;99.90;;;;;;5013103;28;19931;-75
2023/01/07 14:16:41;;;;;;;;;;;10.40;99.90;;;;;;5011925;28;19925;-75
2023/01/07 14:19:16;;;;;;;;;;;10.40;99.90;;;;;;5010157;28;19929;-75
2023/01/07 14:21:51;;;;;;;;;;;10.40;99.90;;;;;;5034340;28;19925;-75
2023/01/07 14:24:17;;;;;;;;;;;10.40;99.90;;;;;;5028009;28;19921;-75
2023/01/07 14:26:45;;;;;;;;;;;10.40;99.90;;;;;;5017064;28;19929;-75
2023/01/07 14:29:23;;;;;;;;;;;10.30;99.90;;;;;;5035073;28;20386;-75
2023/01/07 14:31:50;;;;;;;;;;;10.30;99.90;;;;;;5032441;28;19925;-75
2023/01/07 14:34:21;;;;;;;;;;;10.20;99.90;;;;;;5040213;28;19925;-75
2023/01/07 14:37:07;;;;;;;;;;;10.20;99.90;;;;;;5030353;28;20533;-75
2023/01/07 14:39:37;;;;;;;;;;;10.10;99.90;;;;;;5027386;28;20000;-75
2023/01/07 14:42:15;;;;;;;;;;;10.10;99.90;;;;;;5028254;28;19925;-75
2023/01/07 14:44:41;;;;;;;;;;;10.00;99.90;;;;;;5009204;28;20019;-75